• Join FlightAware (Why Join?)
  • Login
  • US Flag 
03:37AM EDT


 

Airport Tracker/Info


-or-


 

Live Flight TrackerFlight Track Log ✈ AAL2007 ✈ 20-Apr-2013 ✈ KORD - KAUS

Flight Track Log - Related Links

Times and Time Zones

All times are in EDT time to prevent confusion due to time zone crossing. See the AAL2007 flight status page for this flight to view local times or setup timezone preferences in your user account.

Time Position Orientation Groundspeed Altitude Reporting Facility
EDT Latitude Longitude Course Direction KTS MPH feet Rate Location/Type
06:07PM 41.9167 -87.9167 207° Southwest 197 227 2,900  Level Chicago TRACON
06:08PM 41.8500 -87.9000 169° South 265 305 4,900 2,520 Climbing Chicago TRACON
06:09PM 41.8137 -88.0751 217° Southwest  Level Estimated
06:10PM 41.7296 -88.1590 201° Southwest  Level Estimated
06:10PM 41.7736 -87.9406 202° Southwest 265 305 8,400  Level Chicago Center
06:11PM 41.6455 -88.2427 197° South  Level Estimated
06:11PM 41.7042 -87.9875 207° Southwest 280 322 11,700  Level Chicago Center
06:12PM 41.5459 -88.1991 162° South  Level FlightAware Approximate
06:12PM 41.6264 -88.0386 206° Southwest 308 354 13,700  Level Chicago Center
06:13PM 41.4632 -88.2821 207° Southwest  Level Estimated
06:13PM 41.5331 -88.0983 206° Southwest 372 428 15,900  Level Chicago Center
06:14PM 41.4222 -88.1683 205° Southwest 384 442 19,100 2,460 Climbing Chicago Center
06:15PM 41.3214 -88.2172 200° South 397 457 21,000 2,040 Climbing Chicago Center
06:16PM 41.2147 -88.2658 199° South 409 471 23,400 2,040 Climbing Chicago Center
06:17PM 41.1053 -88.3144 199° South 414 476 25,300 1,740 Climbing Chicago Center
06:18PM 41.0092 -88.3936 212° Southwest 408 470 27,000 1,620 Climbing Chicago Center
06:19PM 40.8969 -88.5014 216° Southwest 414 476 28,700 1,800 Climbing Chicago Center
06:20PM 40.8039 -88.5956 217° Southwest 421 484 30,800 1,560 Climbing Chicago Center
06:21PM 40.7144 -88.6850 217° Southwest 407 468 32,000 540 Climbing Chicago Center
06:22PM 40.6256 -88.7722 217° Southwest 401 461 32,000 240 Level Chicago Center
06:23PM 40.5303 -88.8669 217° Southwest 398 458 32,600 720 Climbing Chicago Center
06:24PM 40.4436 -88.9550 218° Southwest 393 452 33,500 660 Climbing Chicago Center
06:25PM 40.3556 -89.0414 217° Southwest 393 452 34,000 240 Climbing Chicago Center
06:26PM 40.2650 -89.1303 217° Southwest 400 460 34,000  Level Chicago Center
06:27PM 40.1761 -89.2167 217° Southwest 399 459 34,000  Level Chicago Center
06:28PM 40.0867 -89.3061 217° Southwest 396 456 34,000  Level Kansas City Center
06:29PM 39.9972 -89.3942 217° Southwest 399 459 34,000  Level Kansas City Center
06:30PM 39.9086 -89.4792 216° Southwest 402 463 34,000  Level Chicago Center
06:31PM 39.8006 -89.5828 216° Southwest 401 461 34,000  Level Chicago Center
06:32PM 39.7297 -89.6550 218° Southwest 398 458 34,000  Level Kansas City Center
06:33PM 39.6372 -89.7436 216° Southwest 396 456 34,000  Level Kansas City Center
06:34PM 39.5483 -89.8294 217° Southwest 399 459 34,000  Level Kansas City Center
06:35PM 39.4600 -89.9147 217° Southwest 398 458 34,000  Level Kansas City Center
06:36PM 39.3558 -90.0161 217° Southwest 394 453 34,000  Level Kansas City Center
06:37PM 39.2669 -90.0997 216° Southwest 395 455 34,000  Level Kansas City Center
06:38PM 39.1781 -90.1833 216° Southwest 397 457 34,000  Level Kansas City Center
06:39PM 39.0883 -90.2678 216° Southwest 400 460 34,000  Level Kansas City Center
06:40PM 38.9986 -90.3525 216° Southwest 401 461 34,000  Level Kansas City Center
06:41PM 38.9047 -90.4408 216° Southwest 397 457 34,000  Level Kansas City Center
06:42PM 38.8169 -90.5283 218° Southwest 397 457 34,000  Level Kansas City Center
06:43PM 38.7369 -90.6231 223° Southwest 393 452 34,000  Level Kansas City Center
06:44PM 38.6506 -90.7228 222° Southwest 391 450 34,000  Level Kansas City Center
06:46PM 38.5700 -90.8153 222° Southwest 392 451 34,000  Level Kansas City Center
06:47PM 38.4892 -90.9083 222° Southwest 393 452 34,000  Level Kansas City Center
06:48PM 38.4078 -91.0017 222° Southwest 394 453 34,000  Level Kansas City Center
06:49PM 38.3103 -91.1122 222° Southwest 392 451 34,000  Level Kansas City Center
06:50PM 38.2317 -91.2019 222° Southwest 382 440 34,000  Level Kansas City Center
06:51PM 38.1528 -91.2914 222° Southwest 382 440 34,000  Level Kansas City Center
06:52PM 38.0711 -91.3839 222° Southwest 387 445 34,000  Level Kansas City Center
06:53PM 37.9911 -91.4747 222° Southwest 386 444 34,000  Level Kansas City Center
06:54PM 37.9089 -91.5681 222° Southwest 390 449 34,000  Level Kansas City Center
06:55PM 37.8250 -91.6619 221° Southwest 393 452 34,000  Level Kansas City Center
06:56PM 37.7400 -91.7575 222° Southwest 401 461 34,000  Level Kansas City Center
06:57PM 37.6403 -91.8686 221° Southwest 396 456 34,000  Level Kansas City Center
06:58PM 37.5578 -91.9617 222° Southwest 394 453 34,000  Level Kansas City Center
06:59PM 37.4753 -92.0536 222° Southwest 394 453 34,000  Level Kansas City Center
07:00PM 37.3925 -92.1444 221° Southwest 392 451 34,000  Level Kansas City Center
07:01PM 37.3106 -92.2342 221° Southwest 390 449 34,000  Level Kansas City Center
07:02PM 37.2283 -92.3244 221° Southwest 389 448 34,000  Level Kansas City Center
07:03PM 37.1453 -92.4153 221° Southwest 391 450 34,000  Level Kansas City Center
07:04PM 37.0636 -92.5056 221° Southwest 391 450 34,000  Level Kansas City Center
07:05PM 36.9806 -92.5961 221° Southwest 392 451 34,000  Level Kansas City Center
07:06PM 36.8983 -92.6850 221° Southwest 391 450 34,000  Level Kansas City Center
07:07PM 36.8139 -92.7739 220° Southwest 395 455 34,000  Level Kansas City Center
07:08PM 36.7139 -92.8808 221° Southwest 394 453 34,000  Level Kansas City Center
07:09PM 36.6294 -92.9736 221° Southwest 394 453 34,000  Level Memphis Center
07:10PM 36.5483 -93.0614 221° Southwest 394 453 34,000  Level Memphis Center
07:11PM 36.4653 -93.1489 220° Southwest 394 453 34,000  Level Memphis Center
07:12PM 36.3733 -93.2464 221° Southwest 394 453 34,000  Level Memphis Center
07:13PM 36.2922 -93.3283 219° Southwest 394 453 34,000  Level Memphis Center
07:14PM 36.2128 -93.4156 222° Southwest 394 453 34,000  Level Memphis Center
07:15PM 36.1275 -93.4944 217° Southwest 389 448 34,000  Level Memphis Center
07:16PM 36.0381 -93.5656 213° Southwest 389 448 34,000 -120 Level Memphis Center
07:17PM 35.9508 -93.6367 213° Southwest 389 448 33,800 -540 Descending Memphis Center
07:18PM 35.8614 -93.7072 213° Southwest 389 448 33,000 -840 Descending Memphis Center
07:19PM 35.7719 -93.7778 213° Southwest 384 442 32,200 -540 Descending Memphis Center
07:20PM 35.6822 -93.8508 213° Southwest 384 442 32,000 -120 Descending Memphis Center
07:21PM 35.5906 -93.9261 214° Southwest 391 450 32,000  Level Memphis Center
07:22PM 35.4986 -93.9986 213° Southwest 398 458 32,000  Level Memphis Center
07:23PM 35.4047 -94.0711 212° Southwest 403 464 32,000  Level Memphis Center
07:24PM 35.3150 -94.1458 214° Southwest 403 464 32,000  Level Memphis Center
07:25PM 35.2253 -94.2156 212° Southwest 403 464 32,000  Level Memphis Center
07:27PM 35.0539 -94.3522 213° Southwest 389 448 32,000  Level Fort Worth Center
07:28PM 34.9619 -94.4267 214° Southwest 384 442 32,000  Level Fort Worth Center
07:29PM 34.8717 -94.4931 211° Southwest 384 442 32,000  Level Fort Worth Center
07:30PM 34.7714 -94.5772 215° Southwest 389 448 32,000  Level Fort Worth Center
07:31PM 34.6833 -94.6458 213° Southwest 389 448 32,000  Level Fort Worth Center
07:32PM 34.5908 -94.7169 212° Southwest 389 448 32,000  Level Fort Worth Center
07:33PM 34.5025 -94.7828 212° Southwest 382 440 32,000  Level Fort Worth Center
07:34PM 34.4100 -94.8511 211° Southwest 382 440 32,000  Level Fort Worth Center
07:35PM 34.3219 -94.9217 214° Southwest 382 440 32,000  Level Fort Worth Center
07:36PM 34.2294 -94.9919 212° Southwest 382 440 32,000  Level Fort Worth Center
07:37PM 34.1389 -95.0622 213° Southwest 382 440 32,000  Level Fort Worth Center
07:38PM 34.0464 -95.1325 212° Southwest 387 445 32,000  Level Fort Worth Center
07:39PM 33.9556 -95.2000 212° Southwest 387 445 32,000  Level Fort Worth Center
07:40PM 33.8711 -95.2647 212° Southwest 395 455 32,000  Level Fort Worth Center
07:41PM 33.7806 -95.3317 212° Southwest 395 455 32,000  Level Fort Worth Center
07:42PM 33.6878 -95.4014 212° Southwest 395 455 32,000  Level Fort Worth Center
07:43PM 33.5992 -95.4683 212° Southwest 395 455 32,000  Level Fort Worth Center
07:44PM 33.5061 -95.5375 212° Southwest 389 448 32,000  Level Fort Worth Center
07:45PM 33.4092 -95.6094 212° Southwest 380 437 32,000  Level Fort Worth Center
07:46PM 33.3264 -95.6706 212° Southwest 385 443 32,000  Level Fort Worth Center
07:47PM 33.2336 -95.7419 213° Southwest 391 450 32,000  Level Fort Worth Center
07:48PM 33.1406 -95.8083 211° Southwest 385 443 32,000 -360 Level Fort Worth Center
07:49PM 33.0475 -95.8769 212° Southwest 385 443 31,300 -840 Descending Fort Worth Center
07:50PM 32.9583 -95.9453 213° Southwest 390 449 30,400 -660 Descending Fort Worth Center
07:51PM 32.8611 -96.0161 211° Southwest 390 449 30,000 -240 Descending Fort Worth Center
07:52PM 32.7597 -96.0917 212° Southwest 390 449 30,000  Level Fort Worth Center
07:53PM 32.6664 -96.1597 212° Southwest 395 455 30,000  Level Fort Worth Center
07:54PM 32.5731 -96.2278 212° Southwest 400 460 30,000  Level Fort Worth Center
07:55PM 32.4797 -96.2953 211° Southwest 400 460 30,000  Level Fort Worth Center
07:56PM 32.3844 -96.3653 212° Southwest 405 466 30,000  Level Fort Worth Center
07:57PM 32.2931 -96.4328 212° Southwest 405 466 30,000 -300 Level Fort Worth Center
07:58PM 32.1997 -96.5000 211° Southwest 405 466 29,400 -720 Descending Fort Worth Center
07:59PM 32.1144 -96.5622 212° Southwest 405 466 28,600 -900 Descending Fort Worth Center
08:00PM 32.0208 -96.6292 211° Southwest 410 472 27,600 -1,020 Descending Fort Worth Center
08:01PM 31.9275 -96.6961 211° Southwest 410 472 26,600 -1,020 Descending Fort Worth Center
08:02PM 31.8317 -96.7653 212° Southwest 410 472 25,600 -1,020 Descending Fort Worth Center
08:03PM 31.7422 -96.8294 211° Southwest 394 453 24,600 -1,020 Descending Fort Worth Center
08:04PM 31.6506 -96.8983 213° Southwest 394 453 23,600 -1,020 Descending Fort Worth Center
08:05PM 31.6028 -96.9283 208° Southwest 382 440 23,100 -1,020 Descending Houston Center
08:06PM 31.5122 -96.9944 212° Southwest 380 437 22,000 -540 Descending Houston Center
08:07PM 31.4058 -97.0689 211° Southwest 379 436 22,000  Level Houston Center
08:08PM 31.3156 -97.1336 211° Southwest 377 434 22,000 -540 Level Houston Center
08:09PM 31.2161 -97.1825 203° Southwest 385 443 20,900 -1,560 Descending Houston Center
08:10PM 31.1144 -97.2256 200° South 385 443 18,900 -1,740 Descending Houston Center
08:11PM 31.0183 -97.2700 202° Southwest 374 430 17,400 -1,860 Descending Houston Center
08:12PM 30.9158 -97.3158 201° Southwest 369 425 15,100 -1,980 Descending Houston Center
08:13PM 30.8339 -97.3531 201° Southwest 361 415 13,400 -1,860 Descending Houston Center
08:14PM 30.7436 -97.3942 201° Southwest 347 399 11,400 -1,740 Descending Houston Center
08:15PM 30.6636 -97.4597 215° Southwest 302 348 9,900 -1,740 Descending Houston Center
08:16PM 30.6039 -97.5089 215° Southwest 270 311 7,900 -1,920 Descending Houston Center
08:17PM 30.5450 -97.5553 214° Southwest 257 296 6,100 -1,620 Descending Houston Center
08:18PM 30.4800 -97.5889 204° Southwest 253 291 4,700 -1,260 Descending Houston Center
08:19PM 30.4147 -97.6206 203° Southwest 253 291 3,600 -720 Descending Houston Center
08:20PM 30.3639 -97.6486 205° Southwest 211 243 3,300 -300 Descending Houston Center